Time;durP1;ratioP1;P1;durP2;ratioP2;P2;SDS_P1;SDS_P2;PMS_P1;PMS_P2;Temp;Humidity;BMP_temperature;BMP_pressure;BME280_temperature;BME280_humidity;BME280_pressure;Samples;Min_cycle;Max_cycle;Signal;HPM_P1;HPM_P2
2021/12/29 00:02:01;;;;;;;35.80;13.02;;;;;;;;;;5074686;28;20341;-43
2021/12/29 00:04:27;;;;;;;37.33;13.43;;;;;;;;;;5065912;28;20692;-48
2021/12/29 00:06:56;;;;;;;37.88;14.00;;;;;;;;;;5074709;28;20083;-45
2021/12/29 00:09:22;;;;;;;47.90;14.43;;;;;;;;;;5076112;28;20105;-43
2021/12/29 00:11:48;;;;;;;45.97;14.82;;;;;;;;;;5063858;28;20059;-44
2021/12/29 00:14:14;;;;;;;55.42;15.55;;;;;;;;;;5074417;28;20082;-49
2021/12/29 00:16:42;;;;;;;43.47;13.50;;;5.80;99.90;;;;;;5073224;28;20032;-45
2021/12/29 00:19:08;;;;;;;55.30;15.52;;;;;;;;;;5081729;28;20036;-44
2021/12/29 00:21:35;;;;;;;42.72;13.35;;;5.80;99.90;;;;;;5069167;28;20040;-43
2021/12/29 00:24:04;;;;;;;56.45;15.10;;;5.80;99.90;;;;;;5072958;28;20032;-43
2021/12/29 00:26:31;;;;;;;58.35;15.30;;;5.90;99.90;;;;;;5073307;28;20036;-43
2021/12/29 00:28:59;;;;;;;48.60;13.85;;;;;;;;;;5077153;28;20044;-43
2021/12/29 00:31:29;;;;;;;48.45;14.07;;;6.00;99.90;;;;;;5074272;28;20451;-44
2021/12/29 00:33:55;;;;;;;60.13;14.38;;;;;;;;;;5079738;28;20051;-43
2021/12/29 00:36:21;;;;;;;59.22;15.00;;;;;;;;;;5082958;28;20039;-46
2021/12/29 00:38:47;;;;;;;77.40;16.63;;;;;;;;;;5073430;28;20046;-42
2021/12/29 00:41:14;;;;;;;79.75;17.73;;;6.10;99.90;;;;;;5073049;28;20036;-46
2021/12/29 00:43:41;;;;;;;75.10;16.90;;;;;;;;;;5081441;28;20059;-45
2021/12/29 00:46:08;;;;;;;87.25;17.63;;;6.10;99.90;;;;;;5074118;28;20071;-43
2021/12/29 00:48:38;;;;;;;78.32;16.75;;;6.10;99.90;;;;;;5074503;28;20043;-42
2021/12/29 00:51:04;;;;;;;81.22;18.08;;;;;;;;;;5069391;28;20036;-44
2021/12/29 00:53:31;;;;;;;95.13;19.13;;;;;;;;;;5073725;28;20110;-43
2021/12/29 00:55:57;;;;;;;108.63;19.83;;;;;;;;;;5070241;28;20056;-44
2021/12/29 00:58:23;;;;;;;97.90;20.17;;;;;;;;;;5065654;28;20123;-48
2021/12/29 01:00:49;;;;;;;116.68;21.65;;;;;;;;;;5076791;28;20041;-45
2021/12/29 01:03:15;;;;;;;109.70;22.42;;;;;;;;;;5067786;28;20488;-44
2021/12/29 01:05:41;;;;;;;113.57;21.65;;;;;;;;;;5070010;28;20051;-45
2021/12/29 01:08:07;;;;;;;113.38;21.75;;;;;;;;;;5073084;28;20139;-44
2021/12/29 01:10:36;;;;;;;82.82;20.58;;;6.10;99.90;;;;;;5060680;28;20094;-43
2021/12/29 01:13:03;;;;;;;81.32;20.17;;;6.30;99.90;;;;;;5077901;28;20052;-44
2021/12/29 01:15:36;;;;;;;105.78;21.63;;;6.20;99.90;;;;;;5073797;28;20079;-48
2021/12/29 01:18:05;;;;;;;73.68;20.40;;;6.40;99.90;;;;;;5073169;28;20123;-43
2021/12/29 01:20:31;;;;;;;81.15;20.48;;;;;;;;;;5071013;28;20044;-44
2021/12/29 01:22:59;;;;;;;160.73;25.45;;;;;;;;;;5067608;28;20037;-45
2021/12/29 01:25:25;;;;;;;163.07;25.05;;;;;;;;;;5072165;28;20150;-44
2021/12/29 01:27:51;;;;;;;128.73;24.52;;;;;;;;;;5082318;28;20044;-50
2021/12/29 01:30:18;;;;;;;226.02;28.67;;;6.30;99.90;;;;;;5066437;28;20382;-44
2021/12/29 01:32:44;;;;;;;184.95;27.38;;;;;;;;;;5068371;28;20752;-44
2021/12/29 01:35:12;;;;;;;102.53;24.00;;;6.30;99.90;;;;;;5065816;28;20040;-50
2021/12/29 01:37:39;;;;;;;123.65;23.98;;;6.30;99.90;;;;;;5078553;28;20028;-44
2021/12/29 01:40:10;;;;;;;100.60;22.85;;;6.10;99.90;;;;;;5072410;28;20044;-44
2021/12/29 01:42:36;;;;;;;118.50;24.00;;;6.10;99.90;;;;;;5072539;28;20044;-43
2021/12/29 01:45:04;;;;;;;142.20;25.20;;;6.40;99.90;;;;;;5069737;28;20777;-43
2021/12/29 01:47:31;;;;;;;88.10;21.55;;;6.30;99.90;;;;;;5069571;28;20040;-44
2021/12/29 01:50:00;;;;;;;103.28;21.77;;;6.30;99.90;;;;;;5072419;28;20049;-45
2021/12/29 01:52:29;;;;;;;92.80;20.77;;;;;;;;;;5076266;28;20357;-49
2021/12/29 01:54:55;;;;;;;128.93;21.98;;;;;;;;;;5071981;28;20051;-43
2021/12/29 01:57:22;;;;;;;146.18;23.00;;;;;;;;;;5066855;28;20067;-49
2021/12/29 01:59:48;;;;;;;133.00;22.63;;;;;;;;;;5074535;28;20116;-46
2021/12/29 02:02:14;;;;;;;104.43;20.10;;;;;;;;;;5073973;28;20052;-44
2021/12/29 02:04:45;;;;;;;115.65;19.92;;;6.40;99.90;;;;;;5075814;28;20538;-43
2021/12/29 02:07:11;;;;;;;85.80;19.40;;;;;;;;;;5073303;28;20047;-43
2021/12/29 02:09:39;;;;;;;102.50;18.50;;;6.30;99.90;;;;;;5062545;28;20032;-43
2021/12/29 02:12:06;;;;;;;113.22;19.48;;;;;;;;;;5063220;28;20151;-44
2021/12/29 02:14:33;;;;;;;93.93;18.25;;;6.40;99.90;;;;;;5076802;28;20102;-44
2021/12/29 02:16:59;;;;;;;83.72;16.17;;;;;;;;;;5079609;28;20504;-46
2021/12/29 02:19:27;;;;;;;71.53;15.10;;;6.40;99.90;;;;;;5077226;28;20036;-43
2021/12/29 02:22:09;;;;;;;72.75;15.50;;;;;;;;;;5074729;28;20075;-43
2021/12/29 02:24:44;;;;;;;67.57;16.08;;;6.30;99.90;;;;;;5075725;28;20040;-43
2021/12/29 02:27:12;;;;;;;74.10;14.18;;;6.30;99.90;;;;;;5073139;28;20053;-43
2021/12/29 02:29:41;;;;;;;72.80;15.70;;;6.40;99.90;;;;;;5073669;28;20068;-44
2021/12/29 02:32:07;;;;;;;80.07;16.20;;;;;;;;;;5080610;28;20271;-44
2021/12/29 02:34:34;;;;;;;66.80;14.95;;;;;;;;;;5072678;28;20040;-43
2021/12/29 02:37:03;;;;;;;59.35;15.48;;;;;;;;;;5072748;28;20490;-47
2021/12/29 02:39:33;;;;;;;63.08;15.13;;;6.50;99.90;;;;;;5073048;28;20114;-43
2021/12/29 02:42:06;;;;;;;55.47;15.23;;;6.50;99.90;;;;;;5076477;28;20648;-44
2021/12/29 02:44:38;;;;;;;77.78;18.45;;;;;;;;;;5069750;28;20043;-43
2021/12/29 02:47:07;;;;;;;74.97;16.73;;;6.60;99.90;;;;;;5068505;28;20037;-43
2021/12/29 02:49:33;;;;;;;70.82;18.60;;;;;;;;;;5077609;28;20101;-43
2021/12/29 02:51:59;;;;;;;57.97;17.50;;;6.70;99.90;;;;;;5075583;28;20082;-43
2021/12/29 02:54:26;;;;;;;68.03;18.88;;;6.60;99.90;;;;;;5070251;28;20531;-45
2021/12/29 02:56:55;;;;;;;77.38;20.05;;;6.70;99.90;;;;;;5077520;28;20078;-45
2021/12/29 02:59:24;;;;;;;75.57;22.27;;;6.70;99.90;;;;;;5074442;28;20052;-48
2021/12/29 03:01:51;;;;;;;80.45;22.98;;;6.70;99.90;;;;;;5075751;28;20097;-44
2021/12/29 03:04:17;;;;;;;70.90;22.00;;;6.70;99.90;;;;;;5072791;28;20123;-49
2021/12/29 03:06:43;;;;;;;62.78;21.25;;;;;;;;;;5072711;28;20115;-49
2021/12/29 03:09:10;;;;;;;74.65;21.67;;;6.60;99.90;;;;;;5065841;28;20135;-48
2021/12/29 03:11:37;;;;;;;62.05;20.48;;;6.80;99.90;;;;;;5075950;28;20036;-45
2021/12/29 03:14:05;;;;;;;65.07;22.17;;;6.90;99.90;;;;;;5064760;28;20029;-46
2021/12/29 03:16:34;;;;;;;69.53;22.80;;;;;;;;;;5078607;28;20064;-45
2021/12/29 03:19:04;;;;;;;78.75;24.00;;;6.60;99.90;;;;;;5076042;28;20043;-46
2021/12/29 03:21:33;;;;;;;67.70;22.30;;;6.80;99.90;;;;;;5077458;28;20102;-43
2021/12/29 03:23:59;;;;;;;82.25;25.00;;;6.60;99.90;;;;;;5079261;28;20045;-44
2021/12/29 03:26:25;;;;;;;63.88;21.98;;;;;;;;;;5067450;28;20032;-44
2021/12/29 03:28:54;;;;;;;70.25;22.75;;;6.80;99.90;;;;;;5084180;28;20580;-45
2021/12/29 03:31:21;;;;;;;63.97;21.88;;;;;;;;;;5075954;28;20043;-44
2021/12/29 03:33:48;;;;;;;70.28;23.40;;;6.70;99.90;;;;;;5069518;28;20054;-48
2021/12/29 03:36:17;;;;;;;61.47;21.35;;;6.80;99.90;;;;;;5081647;28;20036;-44
2021/12/29 03:38:44;;;;;;;62.67;21.40;;;6.90;99.90;;;;;;5075679;28;20040;-45
2021/12/29 03:41:12;;;;;;;57.95;21.17;;;7.00;99.90;;;;;;5079028;28;20082;-45
2021/12/29 03:43:40;;;;;;;73.07;22.08;;;6.70;99.90;;;;;;5075478;28;20033;-45
2021/12/29 03:46:08;;;;;;;64.05;22.05;;;6.80;99.90;;;;;;5079339;28;20036;-43
2021/12/29 03:48:37;;;;;;;76.47;23.55;;;6.80;99.90;;;;;;5078540;28;20043;-46
2021/12/29 03:51:03;;;;;;;55.72;20.88;;;7.00;99.90;;;;;;5075759;28;20473;-44
2021/12/29 03:53:29;;;;;;;60.58;21.15;;;;;;;;;;5081649;28;20384;-45
2021/12/29 03:55:56;;;;;;;54.67;19.30;;;6.80;99.90;;;;;;5069129;28;20036;-46
2021/12/29 03:58:24;;;;;;;53.83;20.10;;;6.80;99.90;;;;;;5077565;28;20048;-44
2021/12/29 04:00:52;;;;;;;62.55;20.90;;;6.90;99.90;;;;;;5073715;28;20044;-46
2021/12/29 04:03:18;;;;;;;63.25;20.92;;;6.90;99.90;;;;;;5064437;28;20064;-43
2021/12/29 04:05:44;;;;;;;53.55;19.13;;;6.90;99.90;;;;;;5074522;28;20132;-46
2021/12/29 04:08:12;;;;;;;64.13;21.55;;;6.80;99.90;;;;;;5068731;28;20036;-44
2021/12/29 04:10:39;;;;;;;61.13;20.85;;;6.80;99.90;;;;;;5078547;28;20049;-47
2021/12/29 04:13:05;;;;;;;57.78;21.27;;;;;;;;;;5077957;28;20044;-45
2021/12/29 04:15:31;;;;;;;62.42;21.75;;;;;;;;;;5072816;28;20127;-45
2021/12/29 04:18:02;;;;;;;56.08;20.23;;;6.80;99.90;;;;;;5082085;28;20056;-48
2021/12/29 04:23:15;;;;;;;57.08;20.52;;;;;;;;;;5074660;28;20174;-46
2021/12/29 04:25:48;;;;;;;58.90;20.77;;;6.80;99.90;;;;;;5075766;28;20460;-43
2021/12/29 04:28:20;;;;;;;53.55;20.42;;;6.70;99.90;;;;;;5063826;28;20037;-47
2021/12/29 04:30:46;;;;;;;63.30;22.00;;;;;;;;;;5074104;28;21373;-44
2021/12/29 04:33:12;;;;;;;59.80;22.23;;;;;;;;;;5084404;28;20782;-46
2021/12/29 04:35:38;;;;;;;64.80;22.83;;;;;;;;;;5064709;28;20040;-44
2021/12/29 04:38:08;;;;;;;56.67;22.17;;;6.90;99.90;;;;;;5072035;28;20041;-46
2021/12/29 04:40:34;;;;;;;57.67;22.42;;;6.90;99.90;;;;;;5073283;28;20487;-46
2021/12/29 04:43:00;;;;;;;51.30;22.65;;;6.90;99.90;;;;;;5074641;28;20135;-46
2021/12/29 04:45:27;;;;;;;73.45;24.73;;;;;;;;;;5071845;28;20032;-43
2021/12/29 04:47:53;;;;;;;61.25;22.77;;;;;;;;;;5073762;28;20411;-44
2021/12/29 04:50:35;;;;;;;58.88;21.45;;;6.80;99.90;;;;;;5067570;28;20516;-45
2021/12/29 04:53:01;;;;;;;62.08;22.80;;;;;;;;;;5079808;28;20094;-43
2021/12/29 04:55:29;;;;;;;59.78;23.38;;;6.80;99.90;;;;;;5073003;28;20043;-44
2021/12/29 04:57:57;;;;;;;58.65;22.38;;;6.90;99.90;;;;;;5071647;28;20044;-44
2021/12/29 05:00:24;;;;;;;76.32;24.02;;;6.90;99.90;;;;;;5074934;28;20036;-44
2021/12/29 05:02:51;;;;;;;64.93;24.92;;;6.80;99.90;;;;;;5070458;28;20040;-44
2021/12/29 05:05:27;;;;;;;62.90;23.77;;;6.90;99.90;;;;;;5073483;28;20047;-44
2021/12/29 05:10:40;;;;;;;71.20;24.40;;;6.80;99.90;;;;;;5066722;28;20063;-45
2021/12/29 05:13:07;;;;;;;50.88;21.88;;;7.00;99.90;;;;;;5083723;28;20412;-45
2021/12/29 05:15:35;;;;;;;57.72;23.52;;;7.00;99.90;;;;;;5065585;28;20523;-45
2021/12/29 05:18:02;;;;;;;61.30;24.48;;;6.90;99.90;;;;;;5071264;28;20041;-45
2021/12/29 05:20:30;;;;;;;54.55;23.23;;;6.70;99.90;;;;;;5080649;28;20526;-46
2021/12/29 05:22:57;;;;;;;52.45;22.15;;;6.80;99.90;;;;;;5072185;28;20043;-45
2021/12/29 05:25:23;;;;;;;65.55;23.98;;;;;;;;;;5079133;28;20037;-44
2021/12/29 05:27:50;;;;;;;50.75;22.48;;;6.70;99.90;;;;;;5073314;28;20044;-49
2021/12/29 05:30:16;;;;;;;63.50;23.45;;;6.80;99.90;;;;;;5074545;28;20121;-44
2021/12/29 05:32:42;;;;;;;61.33;24.25;;;;;;;;;;5070343;28;20036;-48
2021/12/29 05:35:08;;;;;;;58.20;22.13;;;6.80;99.90;;;;;;5074636;28;20093;-46
2021/12/29 05:37:34;;;;;;;51.53;21.40;;;6.70;99.90;;;;;;5068274;28;20044;-45
2021/12/29 05:40:00;;;;;;;59.17;23.58;;;;;;;;;;5063840;28;20036;-46
2021/12/29 05:42:26;;;;;;;45.90;20.17;;;6.90;99.90;;;;;;5074161;28;20036;-49
2021/12/29 05:44:52;;;;;;;49.10;20.20;;;;;;;;;;5074512;28;20168;-46
2021/12/29 05:47:20;;;;;;;73.72;23.90;;;6.80;99.90;;;;;;5060532;28;20098;-46
2021/12/29 05:49:46;;;;;;;57.83;22.50;;;6.70;99.90;;;;;;5064190;28;20085;-46
2021/12/29 05:52:15;;;;;;;68.07;24.00;;;;;;;;;;5072306;28;20032;-45
2021/12/29 05:54:41;;;;;;;67.55;23.05;;;6.80;99.90;;;;;;5069222;28;20094;-46
2021/12/29 05:57:07;;;;;;;69.75;24.20;;;;;;;;;;5070274;28;20040;-45
2021/12/29 05:59:33;;;;;;;56.90;22.38;;;;;;;;;;5073550;28;20079;-46
2021/12/29 06:01:59;;;;;;;64.78;23.83;;;;;;;;;;5067405;28;20118;-48
2021/12/29 06:04:25;;;;;;;69.78;24.20;;;;;;;;;;5078412;28;20082;-50
2021/12/29 06:06:51;;;;;;;72.32;24.02;;;6.80;99.90;;;;;;5065341;28;20057;-47
2021/12/29 06:09:18;;;;;;;62.60;21.42;;;6.80;99.90;;;;;;5069877;28;20036;-50
2021/12/29 06:11:44;;;;;;;69.63;23.30;;;6.70;99.90;;;;;;5068928;28;20500;-52
2021/12/29 06:14:10;;;;;;;83.85;23.65;;;;;;;;;;5072924;28;20040;-48
2021/12/29 06:16:40;;;;;;;65.95;22.35;;;6.70;99.90;;;;;;5073436;28;20042;-46
2021/12/29 06:19:07;;;;;;;94.00;25.85;;;6.70;99.90;;;;;;5071332;28;20040;-45
2021/12/29 06:21:33;;;;;;;102.00;25.35;;;6.80;99.90;;;;;;5069671;28;20059;-48
2021/12/29 06:23:59;;;;;;;88.07;23.48;;;6.90;99.90;;;;;;5073807;28;20485;-49
2021/12/29 06:26:26;;;;;;;75.82;23.23;;;6.80;99.90;;;;;;5079731;28;20043;-51
2021/12/29 06:28:52;;;;;;;83.70;24.13;;;;;;;;;;5062033;28;20044;-46
2021/12/29 06:31:18;;;;;;;109.15;25.60;;;6.90;99.90;;;;;;5071841;28;20171;-50
2021/12/29 06:33:46;;;;;;;93.80;23.63;;;6.70;99.90;;;;;;5076064;28;20054;-50
2021/12/29 06:36:12;;;;;;;107.47;24.35;;;;;;;;;;5064086;28;20040;-50
2021/12/29 06:38:37;;;;;;;109.97;24.67;;;6.80;99.90;;;;;;5076872;28;20066;-46
2021/12/29 06:41:05;;;;;;;121.10;27.45;;;6.80;99.90;;;;;;5071841;28;20454;-48
2021/12/29 06:43:31;;;;;;;86.25;23.08;;;;;;;;;;5075602;28;20074;-45
2021/12/29 06:45:57;;;;;;;96.85;24.38;;;;;;;;;;5070239;28;20040;-45
2021/12/29 06:48:26;;;;;;;104.65;23.80;;;6.90;99.90;;;;;;5079640;28;20040;-49
2021/12/29 06:50:54;;;;;;;82.00;23.05;;;6.90;99.90;;;;;;5061217;28;20051;-45
2021/12/29 06:53:20;;;;;;;107.35;22.90;;;7.00;99.90;;;;;;5070375;28;20032;-45
2021/12/29 06:55:46;;;;;;;98.20;22.83;;;;;;;;;;5070865;28;20051;-45
2021/12/29 06:58:12;;;;;;;119.03;25.52;;;6.90;99.90;;;;;;5073506;28;20087;-46
2021/12/29 07:00:39;;;;;;;129.18;24.95;;;6.70;99.90;;;;;;5075664;28;20473;-48
2021/12/29 07:03:05;;;;;;;88.45;24.00;;;;;;;;;;5068791;28;20040;-46
2021/12/29 07:05:33;;;;;;;76.20;23.23;;;6.90;99.90;;;;;;5065707;28;20441;-45
2021/12/29 07:07:59;;;;;;;104.00;26.38;;;7.00;99.90;;;;;;5067732;28;20048;-45
2021/12/29 07:10:25;;;;;;;97.20;23.52;;;6.90;99.90;;;;;;5064727;28;20071;-47
2021/12/29 07:12:52;;;;;;;74.75;22.17;;;6.90;99.90;;;;;;5074670;28;20544;-45
2021/12/29 07:15:19;;;;;;;89.75;21.83;;;;;;;;;;5069771;28;20048;-45
2021/12/29 07:17:45;;;;;;;58.00;19.15;;;;;;;;;;5073888;28;20040;-44
2021/12/29 07:20:12;;;;;;;64.55;20.05;;;6.90;99.90;;;;;;5074016;28;20048;-46
2021/12/29 07:22:38;;;;;;;67.40;18.08;;;;;;;;;;5075274;28;20166;-45
2021/12/29 07:25:05;;;;;;;69.93;18.55;;;6.80;99.90;;;;;;5063793;28;20120;-50
2021/12/29 07:27:32;;;;;;;75.43;19.77;;;6.90;99.90;;;;;;5078739;28;20039;-46
2021/12/29 07:29:58;;;;;;;71.60;19.73;;;6.90;99.90;;;;;;5085212;28;20059;-44
2021/12/29 07:32:26;;;;;;;72.15;19.48;;;;;;;;;;5075902;28;20079;-44
2021/12/29 07:34:52;;;;;;;98.88;21.70;;;;;;;;;;5078307;28;20119;-45
2021/12/29 07:37:17;;;;;;;55.28;18.63;;;6.90;99.90;;;;;;5064868;28;20389;-44
2021/12/29 07:39:43;;;;;;;64.22;20.15;;;7.00;99.90;;;;;;5067663;28;20032;-44
2021/12/29 07:42:11;;;;;;;66.82;20.17;;;7.00;99.90;;;;;;5077331;28;20459;-45
2021/12/29 07:44:39;;;;;;;83.30;22.35;;;;;;;;;;5064116;28;20048;-45
2021/12/29 07:47:06;;;;;;;87.63;22.50;;;6.80;99.90;;;;;;5066459;28;20064;-45
2021/12/29 07:49:35;;;;;;;76.95;22.15;;;6.90;99.90;;;;;;5084545;28;20048;-44
2021/12/29 07:52:01;;;;;;;88.68;22.08;;;;;;;;;;5074028;28;20040;-46
2021/12/29 07:54:27;;;;;;;61.80;19.90;;;6.80;99.90;;;;;;5072594;28;20504;-44
2021/12/29 07:56:56;;;;;;;85.75;23.15;;;6.80;99.90;;;;;;5063638;28;20121;-44
2021/12/29 07:59:21;;;;;;;90.05;22.92;;;6.80;99.90;;;;;;5073871;28;20053;-45
2021/12/29 08:01:48;;;;;;;73.15;20.33;;;6.90;99.90;;;;;;5074878;28;20097;-46
2021/12/29 08:04:19;;;;;;;103.25;22.80;;;6.90;99.90;;;;;;5066292;28;20505;-45
2021/12/29 08:06:46;;;;;;;83.68;21.63;;;6.90;99.90;;;;;;5063938;28;20044;-44
2021/12/29 08:09:12;;;;;;;96.30;21.40;;;7.00;99.90;;;;;;5074027;28;20408;-46
2021/12/29 08:11:40;;;;;;;117.55;22.58;;;6.80;99.90;;;;;;5072683;28;20052;-50
2021/12/29 08:14:07;;;;;;;138.93;22.25;;;6.90;99.90;;;;;;5075708;28;21266;-45
2021/12/29 08:16:33;;;;;;;97.72;22.15;;;6.90;99.90;;;;;;5079480;28;20104;-47
2021/12/29 08:19:02;;;;;;;110.15;21.15;;;6.90;99.90;;;;;;5074210;28;20516;-44
2021/12/29 08:21:28;;;;;;;102.68;20.65;;;;;;;;;;5080586;28;20465;-45
2021/12/29 08:23:54;;;;;;;120.10;21.33;;;;;;;;;;5074602;28;20036;-50
2021/12/29 08:26:21;;;;;;;117.18;18.80;;;7.10;99.90;;;;;;5067671;28;20524;-47
2021/12/29 08:28:47;;;;;;;106.75;19.92;;;;;;;;;;5077628;28;20466;-46
2021/12/29 08:31:14;;;;;;;103.68;19.92;;;;;;;;;;5067354;28;20528;-50
2021/12/29 08:33:44;;;;;;;119.00;20.90;;;6.90;99.90;;;;;;5071871;28;20032;-47
2021/12/29 08:36:10;;;;;;;116.18;20.13;;;;;;;;;;5063315;28;20040;-48
2021/12/29 08:38:36;;;;;;;121.35;19.42;;;;;;;;;;5069956;28;20043;-46
2021/12/29 08:41:02;;;;;;;118.15;18.52;;;7.00;99.90;;;;;;5069488;28;20036;-48
2021/12/29 08:43:30;;;;;;;108.55;18.48;;;;;;;;;;5074090;28;20086;-46
2021/12/29 08:45:56;;;;;;;191.73;22.80;;;;;;;;;;5073586;28;20099;-52
2021/12/29 08:48:21;;;;;;;139.07;19.60;;;7.10;99.90;;;;;;5074286;28;20040;-47
2021/12/29 08:50:47;;;;;;;197.88;22.13;;;7.00;99.90;;;;;;5077350;28;20098;-50
2021/12/29 08:53:14;;;;;;;194.55;22.25;;;7.00;99.90;;;;;;5073652;28;20393;-48
2021/12/29 08:55:47;;;;;;;233.32;23.50;;;7.10;99.90;;;;;;5072363;28;20043;-47
2021/12/29 08:58:15;;;;;;;88.43;17.23;;;7.10;99.90;;;;;;5075897;28;21020;-46
2021/12/29 09:00:41;;;;;;;117.05;19.27;;;;;;;;;;5070107;28;20173;-46
2021/12/29 09:03:10;;;;;;;272.30;24.65;;;7.00;99.90;;;;;;5075360;28;20108;-47
2021/12/29 09:05:37;;;;;;;205.05;22.10;;;;;;;;;;5069062;28;20889;-50
2021/12/29 09:08:03;;;;;;;164.30;20.88;;;7.20;99.90;;;;;;5082252;28;20504;-46
2021/12/29 09:10:28;;;;;;;195.35;21.95;;;7.20;99.90;;;;;;5069058;28;20078;-48
2021/12/29 09:12:55;;;;;;;218.73;22.08;;;7.20;99.90;;;;;;5070381;28;20052;-45
2021/12/29 09:15:22;;;;;;;206.85;21.20;;;7.10;99.90;;;;;;5071524;28;20037;-48
2021/12/29 09:17:50;;;;;;;181.10;21.00;;;7.10;99.90;;;;;;5074537;28;20408;-48
2021/12/29 09:20:25;;;;;;;212.55;21.05;;;;;;;;;;5077240;28;20052;-47
2021/12/29 09:22:54;;;;;;;101.15;18.50;;;7.20;99.90;;;;;;5075824;28;20048;-46
2021/12/29 09:25:21;;;;;;;67.88;17.80;;;7.10;99.90;;;;;;5079072;28;20123;-47
2021/12/29 09:27:49;;;;;;;68.13;16.67;;;;;;;;;;5075888;28;20058;-49
2021/12/29 09:30:21;;;;;;;77.65;18.70;;;7.20;99.90;;;;;;5076511;28;20119;-51
2021/12/29 09:32:48;;;;;;;60.38;16.30;;;7.20;99.90;;;;;;5082610;28;20553;-48
2021/12/29 09:35:16;;;;;;;62.67;17.15;;;7.40;99.90;;;;;;5069671;28;20511;-47
2021/12/29 09:37:42;;;;;;;78.00;23.15;;;7.40;99.90;;;;;;5068207;28;20050;-47
2021/12/29 09:40:10;;;;;;;73.43;17.58;;;7.30;99.90;;;;;;5074509;28;20174;-48
2021/12/29 09:42:36;;;;;;;62.63;17.00;;;7.40;99.90;;;;;;5062689;28;20032;-51
2021/12/29 09:45:04;;;;;;;64.80;17.92;;;7.40;99.90;;;;;;5078662;28;20028;-51
2021/12/29 09:47:30;;;;;;;64.43;17.08;;;;;;;;;;5081925;28;20072;-51
2021/12/29 09:49:56;;;;;;;63.40;18.05;;;7.40;99.90;;;;;;5082036;28;20042;-54
2021/12/29 09:52:22;;;;;;;51.83;18.20;;;7.40;99.90;;;;;;5080955;28;20392;-52
2021/12/29 09:54:48;;;;;;;51.13;18.58;;;7.40;99.90;;;;;;5069930;28;20093;-53
2021/12/29 09:57:14;;;;;;;51.17;16.20;;;;;;;;;;5071374;28;20132;-50
2021/12/29 09:59:40;;;;;;;43.17;15.10;;;7.40;99.90;;;;;;5070344;28;20167;-53
2021/12/29 10:02:06;;;;;;;47.13;16.40;;;7.50;99.90;;;;;;5080703;28;20086;-52
2021/12/29 10:04:37;;;;;;;46.25;17.58;;;7.40;99.90;;;;;;5067356;28;20432;-51
2021/12/29 10:07:18;;;;;;;38.88;15.57;;;7.60;99.90;;;;;;5071232;28;20048;-53
2021/12/29 10:09:45;;;;;;;44.75;17.38;;;7.60;99.90;;;;;;5065559;28;20036;-51
2021/12/29 10:12:19;;;;;;;48.03;20.65;;;7.70;99.90;;;;;;5079166;28;20454;-51
2021/12/29 10:14:55;;;;;;;46.67;18.95;;;7.60;99.90;;;;;;5074037;28;20123;-53
2021/12/29 10:17:28;;;;;;;40.85;15.95;;;7.60;99.90;;;;;;5075889;28;20028;-54
2021/12/29 10:20:05;;;;;;;38.30;13.77;;;7.70;99.90;;;;;;5070754;28;20115;-54
2021/12/29 10:22:31;;;;;;;39.85;13.75;;;7.70;99.90;;;;;;5066871;28;20146;-52
2021/12/29 10:25:02;;;;;;;28.75;13.32;;;7.70;99.90;;;;;;5064516;28;20081;-53
2021/12/29 10:27:31;;;;;;;31.85;12.85;;;7.70;99.90;;;;;;5076621;28;20036;-52
2021/12/29 10:29:57;;;;;;;38.47;13.18;;;7.90;99.90;;;;;;5070591;28;20131;-51
2021/12/29 10:32:24;;;;;;;37.90;12.60;;;7.70;99.90;;;;;;5072127;28;20131;-52
2021/12/29 10:34:52;;;;;;;50.83;19.02;;;7.70;99.90;;;;;;5066498;28;20480;-52
2021/12/29 10:37:20;;;;;;;39.95;13.85;;;7.60;99.90;;;;;;5074503;28;20533;-50
2021/12/29 10:39:49;;;;;;;51.65;16.55;;;7.80;99.90;;;;;;5073680;28;20397;-50
2021/12/29 10:42:17;;;;;;;42.33;13.60;;;7.80;99.90;;;;;;5067247;28;20032;-52
2021/12/29 10:44:59;;;;;;;51.63;13.23;;;7.70;99.90;;;;;;5077120;28;20043;-49
2021/12/29 10:47:37;;;;;;;45.10;12.00;;;7.80;99.90;;;;;;5082243;28;20047;-49
2021/12/29 10:50:05;;;;;;;28.15;10.80;;;7.70;99.90;;;;;;5069048;28;20037;-48
2021/12/29 10:52:37;;;;;;;37.28;11.70;;;7.60;99.90;;;;;;5080740;28;20037;-50
2021/12/29 10:55:14;;;;;;;32.00;11.57;;;7.60;99.90;;;;;;5075576;28;20036;-50
2021/12/29 10:57:40;;;;;;;28.15;10.38;;;7.60;99.90;;;;;;5075708;28;20535;-48
2021/12/29 11:00:12;;;;;;;28.83;10.30;;;7.60;99.90;;;;;;5087132;28;20036;-51
2021/12/29 11:02:38;;;;;;;50.07;14.33;;;7.70;99.90;;;;;;5071083;28;20514;-45
2021/12/29 11:05:08;;;;;;;32.35;9.98;;;7.50;99.90;;;;;;5077239;28;20108;-47
2021/12/29 11:07:36;;;;;;;40.42;11.65;;;7.70;99.90;;;;;;5074226;28;20053;-46
2021/12/29 11:10:17;;;;;;;36.92;11.93;;;7.70;99.90;;;;;;5062948;28;20212;-46
2021/12/29 11:12:48;;;;;;;37.63;10.67;;;7.50;99.90;;;;;;5075818;28;20097;-46
2021/12/29 11:15:18;;;;;;;31.23;10.82;;;7.60;99.90;;;;;;5074480;28;20064;-46
2021/12/29 11:17:45;;;;;;;39.20;10.82;;;7.80;99.90;;;;;;5067637;28;20650;-46
2021/12/29 11:20:21;;;;;;;30.05;10.45;;;7.70;99.90;;;;;;5082729;28;20060;-47
2021/12/29 11:22:47;;;;;;;34.80;11.15;;;7.80;99.90;;;;;;5078112;28;20044;-46
2021/12/29 11:25:13;;;;;;;34.25;12.02;;;;;;;;;;5069673;28;20036;-50
2021/12/29 11:27:39;;;;;;;35.67;10.70;;;7.70;99.90;;;;;;5081739;28;20040;-46
2021/12/29 11:30:09;;;;;;;43.13;12.40;;;7.70;99.90;;;;;;5080720;28;20750;-48
2021/12/29 11:32:43;;;;;;;38.75;12.57;;;7.70;99.90;;;;;;5083153;28;20040;-46
2021/12/29 11:35:20;;;;;;;34.33;11.15;;;7.70;99.90;;;;;;5081567;28;20040;-46
2021/12/29 11:37:52;;;;;;;35.95;11.32;;;7.80;99.90;;;;;;5077246;28;20044;-48
2021/12/29 11:40:21;;;;;;;34.50;10.20;;;7.80;99.90;;;;;;5068567;28;20500;-47
2021/12/29 11:42:48;;;;;;;32.60;12.60;;;8.30;99.90;;;;;;5071308;28;20649;-48
2021/12/29 11:45:14;;;;;;;31.73;10.73;;;7.90;99.90;;;;;;5074900;28;20039;-49
2021/12/29 11:47:40;;;;;;;33.05;10.82;;;7.90;99.90;;;;;;5076460;28;20032;-49
2021/12/29 11:50:09;;;;;;;29.83;10.30;;;7.90;99.90;;;;;;5076380;28;20036;-46
2021/12/29 11:53:05;;;;;;;27.67;8.77;;;8.10;99.90;;;;;;5063810;28;20045;-47
2021/12/29 11:55:33;;;;;;;41.47;9.40;;;8.10;99.90;;;;;;5003778;28;20081;-47
2021/12/29 11:58:18;;;;;;;29.23;9.63;;;8.20;99.90;;;;;;5016610;28;20145;-48
2021/12/29 12:01:00;;;;;;;29.05;7.90;;;8.20;99.90;;;;;;5016121;28;20046;-49
2021/12/29 12:03:56;;;;;;;23.52;7.57;;;8.10;99.90;;;;;;5011407;28;20046;-47
2021/12/29 12:06:32;;;;;;;27.23;6.90;;;8.10;99.90;;;;;;5015029;28;20854;-52
2021/12/29 12:09:07;;;;;;;29.63;7.35;;;8.10;99.90;;;;;;5007344;28;20087;-47
2021/12/29 12:11:35;;;;;;;26.73;6.28;;;8.10;99.90;;;;;;5017625;28;20080;-50
2021/12/29 12:14:04;;;;;;;40.70;6.93;;;8.00;99.90;;;;;;5010557;28;20033;-51
2021/12/29 12:16:29;;;;;;;29.23;6.40;;;8.00;99.90;;;;;;5015516;28;20107;-49
2021/12/29 12:18:58;;;;;;;26.45;5.93;;;8.00;99.90;;;;;;5020472;28;20061;-50
2021/12/29 12:21:30;;;;;;;20.98;5.18;;;8.00;99.90;;;;;;5015756;28;20542;-51
2021/12/29 12:24:25;;;;;;;24.77;6.07;;;8.00;99.90;;;;;;5000334;28;20392;-51
2021/12/29 12:27:34;;;;;;;22.13;6.53;;;8.10;99.90;;;;;;5001032;28;20477;-52
2021/12/29 12:30:24;;;;;;;16.67;6.00;;;7.90;99.90;;;;;;4903031;29;20279;-50
2021/12/29 12:32:52;;;;;;;17.05;6.72;;;7.80;99.90;;;;;;4950528;28;20228;-50
2021/12/29 12:35:42;;;;;;;24.58;7.30;;;7.90;99.90;;;;;;4980359;28;20129;-51
2021/12/29 12:38:18;;;;;;;20.77;5.95;;;7.70;99.90;;;;;;4972237;28;20133;-47
2021/12/29 12:40:45;;;;;;;26.38;6.93;;;;;;;;;;4981340;28;20054;-50
2021/12/29 12:43:11;;;;;;;20.65;6.40;;;;;;;;;;4980476;28;20041;-51
2021/12/29 12:45:41;;;;;;;19.85;6.82;;;7.90;99.90;;;;;;4981053;28;20408;-51
2021/12/29 12:48:18;;;;;;;19.45;6.85;;;7.90;99.90;;;;;;4980511;28;20145;-51
2021/12/29 12:50:44;;;;;;;15.98;5.90;;;7.70;99.90;;;;;;4981672;28;20057;-52
2021/12/29 12:53:11;;;;;;;20.17;6.75;;;7.70;99.90;;;;;;4981157;28;20057;-52
2021/12/29 12:56:05;;;;;;;19.73;6.63;;;7.60;99.90;;;;;;4980178;28;20070;-52
2021/12/29 12:58:41;;;;;;;19.98;5.30;;;7.60;99.90;;;;;;4961469;28;20204;-51
2021/12/29 13:01:34;;;;;;;23.67;5.68;;;7.80;99.90;;;;;;4980973;28;20046;-51
2021/12/29 13:04:05;;;;;;;16.02;5.30;;;7.70;99.90;;;;;;4979918;28;20050;-52
2021/12/29 13:06:35;;;;;;;14.40;5.22;;;7.70;99.90;;;;;;5022498;28;20089;-51
2021/12/29 13:09:03;;;;;;;17.98;5.53;;;7.80;99.90;;;;;;5075738;28;20036;-50
2021/12/29 13:11:35;;;;;;;20.23;5.50;;;7.70;99.90;;;;;;5074821;28;20040;-49
2021/12/29 13:14:02;;;;;;;15.00;6.25;;;7.70;99.90;;;;;;5070948;28;20777;-52
2021/12/29 13:16:29;;;;;;;17.17;6.43;;;7.70;99.90;;;;;;5080178;28;20051;-51